createdAt,value
2019-03-12T00:00:45.025Z,72.79
2019-03-12T00:04:52.865Z,72.89
2019-03-12T00:09:00.680Z,71.95
2019-03-12T00:13:10.133Z,72.15
2019-03-12T00:17:17.939Z,71.52
2019-03-12T00:21:25.583Z,71.90
2019-03-12T00:25:33.162Z,71.97
2019-03-12T00:29:41.986Z,72.26
2019-03-12T00:33:49.693Z,72.73
2019-03-12T00:37:57.921Z,72.48
2019-03-12T00:42:06.030Z,72.88
2019-03-12T00:46:13.735Z,72.93
2019-03-12T00:50:22.874Z,72.96
2019-03-12T00:54:31.100Z,72.75
2019-03-12T00:58:38.805Z,73.10
2019-03-12T01:02:47.028Z,73.04
2019-03-12T01:06:55.228Z,73.02
2019-03-12T01:11:02.945Z,73.15
2019-03-12T01:15:11.843Z,73.04
2019-03-12T01:19:19.709Z,72.81
2019-03-12T01:23:27.419Z,72.91
2019-03-12T01:27:35.616Z,73.57
2019-03-12T01:31:43.133Z,73.30
2019-03-12T01:35:50.569Z,73.54
2019-03-12T01:39:59.371Z,71.62
2019-03-12T01:44:06.975Z,72.84
2019-03-12T01:48:14.995Z,74.56
2019-03-12T01:52:23.298Z,74.41
2019-03-12T01:56:31.003Z,75.33
2019-03-12T02:00:39.527Z,75.81
2019-03-12T02:04:48.676Z,76.39
2019-03-12T02:08:56.113Z,76.23
2019-03-12T02:13:04.493Z,75.91
2019-03-12T02:17:12.824Z,76.39
2019-03-12T02:21:20.441Z,76.28
2019-03-12T02:25:28.355Z,76.73
2019-03-12T02:29:35.826Z,77.28
2019-03-12T02:33:43.456Z,76.86
2019-03-12T02:37:51.661Z,76.66
2019-03-12T02:41:59.378Z,77.27
2019-03-12T02:46:07.502Z,77.04
2019-03-12T02:50:15.811Z,76.98
2019-03-12T02:54:23.423Z,77.49
2019-03-12T02:58:32.859Z,76.89
2019-03-12T03:02:40.791Z,76.67
2019-03-12T03:06:53.228Z,77.68
2019-03-12T03:11:01.093Z,76.95
2019-03-12T03:15:30.392Z,77.17
2019-03-12T03:19:38.232Z,76.92
2019-03-12T03:23:46.467Z,77.26
2019-03-12T03:27:54.162Z,77.26
2019-03-12T03:32:01.779Z,77.25
2019-03-12T03:36:10.003Z,77.80
2019-03-12T03:40:20.421Z,77.31
2019-03-12T03:44:28.678Z,76.53
2019-03-12T03:48:36.795Z,76.88
2019-03-12T03:52:44.559Z,77.47
2019-03-12T03:56:52.515Z,76.92
2019-03-12T04:01:00.849Z,76.92
2019-03-12T04:05:08.751Z,76.43
2019-03-12T04:09:16.574Z,77.05
2019-03-12T04:13:24.370Z,77.29
2019-03-12T04:17:32.184Z,77.04
2019-03-12T04:21:40.396Z,77.05
2019-03-12T04:25:48.214Z,76.55
2019-03-12T04:29:56.020Z,77.56
2019-03-12T04:34:27.474Z,76.83
2019-03-12T04:38:35.400Z,76.75
2019-03-12T04:42:43.527Z,77.02
2019-03-12T04:46:51.932Z,77.56
2019-03-12T04:50:59.642Z,77.47
2019-03-12T04:55:08.365Z,77.64
2019-03-12T04:59:16.431Z,77.49
2019-03-12T05:03:24.198Z,77.96
2019-03-12T05:07:32.339Z,77.56
2019-03-12T05:11:40.242Z,78.07
2019-03-12T05:15:47.843Z,78.23
2019-03-12T05:19:55.661Z,78.14
2019-03-12T05:24:03.262Z,77.71
2019-03-12T05:28:11.326Z,77.31
2019-03-12T05:32:19.229Z,77.66
2019-03-12T05:36:26.830Z,77.84
2019-03-12T05:40:34.707Z,77.79
2019-03-12T05:44:42.389Z,77.24
2019-03-12T05:48:50.120Z,77.14
2019-03-12T05:53:13.597Z,77.52
2019-03-12T05:57:21.599Z,78.17
2019-03-12T06:01:29.337Z,77.23
2019-03-12T06:05:37.220Z,77.64
2019-03-12T06:09:45.041Z,77.58
2019-03-12T06:13:53.359Z,77.67
2019-03-12T06:18:01.159Z,77.50
2019-03-12T06:22:11.700Z,77.75
2019-03-12T06:26:19.057Z,77.62
2019-03-12T06:30:28.335Z,77.51
2019-03-12T06:34:54.867Z,77.56
2019-03-12T06:39:31.196Z,77.52
2019-03-12T06:44:03.939Z,78.01
2019-03-12T06:48:19.378Z,76.93
2019-03-12T06:52:58.724Z,77.34
2019-03-12T06:57:23.186Z,77.99
2019-03-12T07:01:47.668Z,77.76
2019-03-12T07:06:14.833Z,77.59
2019-03-12T07:10:30.323Z,77.94
2019-03-12T07:15:12.216Z,77.46
2019-03-12T07:19:38.482Z,78.21
2019-03-12T07:24:20.950Z,77.79
2019-03-12T07:28:50.541Z,78.36
2019-03-12T07:33:07.149Z,78.63
2019-03-12T07:37:32.932Z,77.74
2019-03-12T07:42:02.783Z,78.03
2019-03-12T07:46:44.769Z,78.67
2019-03-12T07:51:21.757Z,77.88
2019-03-12T07:55:51.361Z,78.35
2019-03-12T08:00:13.888Z,79.13
2019-03-12T08:04:58.398Z,78.58
2019-03-12T08:09:42.137Z,78.56
2019-03-12T08:14:04.846Z,78.62
2019-03-12T08:18:40.896Z,79.14
2019-03-12T08:23:02.682Z,79.37
2019-03-12T08:27:48.153Z,78.72
2019-03-12T08:32:01.791Z,78.85
2019-03-12T08:36:32.123Z,78.21
2019-03-12T08:40:58.620Z,78.18
2019-03-12T08:45:29.454Z,78.46
2019-03-12T08:50:05.590Z,78.71
2019-03-12T08:54:53.396Z,78.14
2019-03-12T08:59:27.410Z,78.43
2019-03-12T09:03:56.359Z,77.60
2019-03-12T09:08:35.612Z,78.10
2019-03-12T09:13:05.315Z,77.59
2019-03-12T09:17:33.959Z,77.52
2019-03-12T09:21:59.991Z,77.08
2019-03-12T09:26:26.352Z,76.52
2019-03-12T09:30:53.212Z,77.29
2019-03-12T09:35:19.045Z,76.22
2019-03-12T09:39:36.594Z,75.93
2019-03-12T09:44:02.430Z,76.07
2019-03-12T09:48:31.754Z,75.64
2019-03-12T09:52:58.596Z,76.27
2019-03-12T09:57:11.402Z,75.13
2019-03-12T10:01:43.847Z,75.22
2019-03-12T10:06:19.935Z,75.76
2019-03-12T10:10:37.407Z,75.60
2019-03-12T10:15:07.916Z,74.39
2019-03-12T10:19:24.785Z,74.84
2019-03-12T10:23:44.062Z,74.77
2019-03-12T10:28:22.638Z,74.85
2019-03-12T10:32:38.268Z,73.99
2019-03-12T10:37:12.700Z,74.45
2019-03-12T10:41:28.057Z,74.17
2019-03-12T10:45:54.804Z,73.70
2019-03-12T10:50:02.648Z,74.35
2019-03-12T10:54:11.372Z,73.31
2019-03-12T10:58:19.058Z,74.08
2019-03-12T11:02:26.990Z,74.66
2019-03-12T11:06:34.685Z,74.23
2019-03-12T11:10:42.585Z,74.13
2019-03-12T11:14:50.457Z,74.10
2019-03-12T11:18:58.225Z,73.79
2019-03-12T11:23:06.084Z,73.80
2019-03-12T11:27:14.046Z,73.84
2019-03-12T11:31:21.857Z,72.95
2019-03-12T11:35:38.662Z,72.48
2019-03-12T11:39:41.275Z,72.22
2019-03-12T11:43:49.193Z,71.95
2019-03-12T11:47:57.109Z,71.86
2019-03-12T11:52:05.469Z,72.20
2019-03-12T11:56:14.654Z,72.12
2019-03-12T12:00:26.410Z,71.45
2019-03-12T12:04:34.084Z,71.97
2019-03-12T12:08:41.834Z,72.08
2019-03-12T12:12:49.785Z,71.42
2019-03-12T12:16:57.605Z,70.94
2019-03-12T12:21:05.417Z,70.75
2019-03-12T12:25:14.168Z,70.19
2019-03-12T12:29:21.855Z,71.08
2019-03-12T12:33:30.171Z,70.85
2019-03-12T12:37:37.791Z,71.60
2019-03-12T12:41:45.401Z,70.91
2019-03-12T12:45:54.527Z,71.28
2019-03-12T12:50:02.771Z,70.13
2019-03-12T12:54:10.558Z,69.24
2019-03-12T12:58:18.876Z,69.95
2019-03-12T13:02:26.672Z,69.90
2019-03-12T13:06:34.599Z,69.27
2019-03-12T13:10:42.986Z,68.96
2019-03-12T13:14:50.563Z,68.60
2019-03-12T13:18:58.644Z,67.13
2019-03-12T13:23:06.359Z,67.48
2019-03-12T13:27:14.059Z,65.24
2019-03-12T13:31:21.980Z,67.80
2019-03-12T13:35:31.130Z,66.11
2019-03-12T13:39:38.912Z,65.42
2019-03-12T13:43:46.849Z,66.20
2019-03-12T13:47:55.327Z,66.04
2019-03-12T13:52:02.989Z,66.12
2019-03-12T13:56:10.797Z,66.18
2019-03-12T14:00:20.126Z,66.19
2019-03-12T14:04:30.055Z,66.67
2019-03-12T14:08:38.782Z,65.55
2019-03-12T14:12:46.820Z,66.32
2019-03-12T14:16:55.174Z,65.47
2019-03-12T14:21:11.581Z,65.60
2019-03-12T14:25:19.674Z,65.91
2019-03-12T14:29:29.033Z,66.06
2019-03-12T14:33:36.933Z,65.85
2019-03-12T14:37:44.800Z,66.20
2019-03-12T14:41:52.766Z,66.56
2019-03-12T14:46:00.672Z,65.88
2019-03-12T14:50:10.649Z,66.42
2019-03-12T14:54:18.702Z,66.85
2019-03-12T14:58:26.352Z,67.08
2019-03-12T15:02:34.199Z,66.62
2019-03-12T15:06:42.168Z,65.41
2019-03-12T15:10:50.133Z,65.50
2019-03-12T15:14:57.902Z,66.32
2019-03-12T15:19:06.021Z,66.72
2019-03-12T15:23:14.155Z,67.10
2019-03-12T15:27:22.305Z,66.58
2019-03-12T15:31:30.018Z,66.50
2019-03-12T15:35:38.180Z,66.92
2019-03-12T15:39:45.917Z,67.39
2019-03-12T15:43:53.591Z,66.73
2019-03-12T15:48:01.514Z,66.36
2019-03-12T15:52:10.847Z,66.11
2019-03-12T15:56:18.621Z,66.15
2019-03-12T16:00:26.727Z,65.64
2019-03-12T16:04:34.446Z,65.59
2019-03-12T16:08:42.196Z,66.47
2019-03-12T16:12:49.937Z,66.20
2019-03-12T16:16:57.884Z,66.59
2019-03-12T16:21:05.948Z,66.49
2019-03-12T16:25:14.171Z,66.77
2019-03-12T16:29:21.778Z,67.11
2019-03-12T16:33:29.392Z,67.25
2019-03-12T16:37:37.281Z,66.99
2019-03-12T16:41:44.903Z,67.37
2019-03-12T16:45:53.065Z,67.38
2019-03-12T16:50:01.523Z,67.16
2019-03-12T16:54:10.485Z,67.72
2019-03-12T16:58:18.588Z,67.41
2019-03-12T17:02:26.680Z,68.86
2019-03-12T17:06:36.604Z,68.49
2019-03-12T17:10:54.801Z,68.29
2019-03-12T17:14:56.042Z,68.42
2019-03-12T17:19:03.789Z,67.87
2019-03-12T17:23:11.495Z,67.51
2019-03-12T17:27:19.207Z,67.87
2019-03-12T17:31:27.233Z,68.43
2019-03-12T17:35:35.030Z,68.35
2019-03-12T17:39:43.099Z,68.47
2019-03-12T17:43:50.798Z,69.26
2019-03-12T17:47:58.457Z,69.33
2019-03-12T17:52:07.695Z,69.77
2019-03-12T17:56:15.364Z,69.53
2019-03-12T18:00:24.110Z,70.04
2019-03-12T18:04:31.843Z,69.89
2019-03-12T18:08:39.449Z,69.89
2019-03-12T18:12:48.096Z,69.88
2019-03-12T18:16:55.992Z,69.95
2019-03-12T18:21:03.799Z,69.96
2019-03-12T18:25:15.444Z,70.63
2019-03-12T18:29:23.205Z,70.97
2019-03-12T18:33:30.825Z,71.12
2019-03-12T18:37:40.355Z,71.20
2019-03-12T18:41:48.783Z,70.73
2019-03-12T18:45:56.521Z,70.95
2019-03-12T18:50:04.538Z,70.67
2019-03-12T18:54:12.153Z,70.76
2019-03-12T18:58:20.965Z,70.24
2019-03-12T19:02:28.966Z,69.79
2019-03-12T19:06:36.862Z,70.38
2019-03-12T19:10:46.455Z,70.66
2019-03-12T19:14:54.151Z,70.20
2019-03-12T19:19:01.942Z,70.44
2019-03-12T19:23:09.906Z,70.72
2019-03-12T19:27:19.158Z,70.56
2019-03-12T19:31:51.462Z,70.87
2019-03-12T19:35:59.419Z,70.21
2019-03-12T19:40:09.050Z,70.91
2019-03-12T19:44:17.371Z,70.70
2019-03-12T19:48:25.172Z,71.58
2019-03-12T19:52:32.916Z,71.16
2019-03-12T19:56:40.907Z,71.39
2019-03-12T20:00:49.651Z,71.14
2019-03-12T20:04:58.561Z,71.22
2019-03-12T20:09:09.466Z,71.26
2019-03-12T20:13:51.741Z,71.60
2019-03-12T20:18:49.041Z,70.86
2019-03-12T20:23:32.291Z,71.27
2019-03-12T20:28:18.896Z,71.29
2019-03-12T20:33:06.728Z,72.08
2019-03-12T20:37:59.186Z,71.25
2019-03-12T20:42:58.837Z,71.64
2019-03-12T20:47:55.708Z,71.66
2019-03-12T20:52:56.140Z,71.13
2019-03-12T20:57:40.606Z,70.80
2019-03-12T21:02:21.083Z,71.00
2019-03-12T21:07:24.085Z,71.62
2019-03-12T21:12:10.084Z,70.13
2019-03-12T21:17:13.204Z,70.93
2019-03-12T21:22:14.051Z,71.42
2019-03-12T21:26:49.319Z,71.86
2019-03-12T21:30:57.633Z,71.38
2019-03-12T21:35:05.652Z,70.67
2019-03-12T21:39:14.072Z,70.88
2019-03-12T21:43:21.924Z,71.50
2019-03-12T21:47:29.836Z,69.88
2019-03-12T21:51:39.043Z,70.65
2019-03-12T21:55:46.842Z,70.51
2019-03-12T21:59:54.689Z,70.33
2019-03-12T22:04:02.457Z,71.10
2019-03-12T22:08:10.200Z,71.26
2019-03-12T22:12:18.482Z,70.79
2019-03-12T22:16:26.638Z,69.81
2019-03-12T22:20:34.352Z,69.83
2019-03-12T22:24:42.062Z,69.67
2019-03-12T22:28:49.934Z,70.26
2019-03-12T22:32:57.640Z,69.43
2019-03-12T22:37:05.567Z,69.46
2019-03-12T22:41:13.136Z,69.42
2019-03-12T22:45:21.409Z,68.91
2019-03-12T22:49:28.886Z,68.24
2019-03-12T22:53:36.691Z,68.06
2019-03-12T22:57:44.946Z,69.15
2019-03-12T23:02:11.175Z,69.70
2019-03-12T23:06:36.929Z,70.76
2019-03-12T23:11:02.602Z,70.51
2019-03-12T23:15:12.309Z,70.51
2019-03-12T23:19:22.167Z,70.13
2019-03-12T23:23:31.092Z,69.87
2019-03-12T23:27:39.384Z,69.96
2019-03-12T23:31:47.572Z,70.58
2019-03-12T23:35:55.517Z,70.51
2019-03-12T23:40:03.555Z,69.92
2019-03-12T23:44:11.376Z,70.28
2019-03-12T23:48:19.084Z,70.10
2019-03-12T23:52:27.883Z,70.80
2019-03-12T23:56:35.490Z,71.11
